Time;durP1;ratioP1;P1;durP2;ratioP2;P2;SDS_P1;SDS_P2;PMS_P1;PMS_P2;Temp;Humidity;BMP_temperature;BMP_pressure;BME280_temperature;BME280_humidity;BME280_pressure;Samples;Min_cycle;Max_cycle;Signal;HPM_P1;HPM_P2
2022/04/29 00:00:17;;;;;;;7.95;4.20;;;6.80;99.90;;;;;;5093777;28;20047;-74
2022/04/29 00:02:43;;;;;;;10.00;5.35;;;6.70;99.90;;;;;;5094179;28;20040;-73
2022/04/29 00:05:09;;;;;;;8.15;4.32;;;6.80;99.90;;;;;;5111735;28;20048;-74
2022/04/29 00:07:36;;;;;;;5.50;4.10;;;6.70;99.90;;;;;;5112016;28;20048;-74
2022/04/29 00:10:02;;;;;;;12.68;6.07;;;6.70;99.90;;;;;;5093622;28;20039;-77
2022/04/29 00:12:27;;;;;;;13.50;6.68;;;6.70;99.90;;;;;;5079520;28;20054;-73
2022/04/29 00:14:55;;;;;;;11.27;6.25;;;6.70;99.90;;;;;;5080895;28;20436;-73
2022/04/29 00:17:21;;;;;;;12.55;7.38;;;6.70;99.90;;;;;;5097551;28;20051;-73
2022/04/29 00:19:46;;;;;;;14.25;8.18;;;6.70;99.90;;;;;;5080557;28;20376;-74
2022/04/29 00:22:12;;;;;;;12.82;7.97;;;6.60;99.90;;;;;;5063798;28;20051;-74
2022/04/29 00:24:38;;;;;;;14.35;9.30;;;6.60;99.90;;;;;;5097972;28;20156;-74
2022/04/29 00:27:04;;;;;;;15.98;9.15;;;6.70;99.90;;;;;;5080974;28;20047;-74
2022/04/29 00:29:29;;;;;;;15.10;8.57;;;6.70;99.90;;;;;;5097619;28;20248;-73
2022/04/29 00:31:55;;;;;;;16.60;9.63;;;6.60;99.90;;;;;;5097459;28;20134;-73
2022/04/29 00:34:21;;;;;;;16.35;10.18;;;6.60;99.90;;;;;;5115235;28;20048;-74
2022/04/29 00:36:46;;;;;;;14.15;9.73;;;6.60;99.90;;;;;;5097434;28;20438;-74
2022/04/29 00:39:12;;;;;;;15.55;9.18;;;6.60;99.90;;;;;;5096646;28;20383;-73
2022/04/29 00:41:38;;;;;;;16.52;9.40;;;6.60;99.90;;;;;;5115170;28;20472;-74
2022/04/29 00:44:07;;;;;;;11.57;8.00;;;6.60;99.90;;;;;;5080396;28;20495;-74
2022/04/29 00:46:38;;;;;;;14.43;7.40;;;6.60;99.90;;;;;;5115330;28;20415;-74
2022/04/29 00:49:04;;;;;;;10.73;7.28;;;6.60;99.90;;;;;;5097391;28;20123;-74
2022/04/29 00:51:30;;;;;;;11.55;7.70;;;6.50;99.90;;;;;;5079542;28;20092;-74
2022/04/29 00:53:56;;;;;;;13.55;7.50;;;6.50;99.90;;;;;;5114907;28;20400;-74
2022/04/29 00:56:22;;;;;;;16.05;7.80;;;6.40;99.90;;;;;;5096394;28;20035;-73
2022/04/29 00:58:55;;;;;;;12.77;7.53;;;6.40;99.90;;;;;;5046653;28;20055;-73
2022/04/29 01:01:21;;;;;;;14.88;7.60;;;6.40;99.90;;;;;;5063541;28;20043;-74
2022/04/29 01:03:47;;;;;;;11.93;7.30;;;6.30;99.90;;;;;;5080145;28;20092;-73
2022/04/29 01:06:12;;;;;;;12.02;7.95;;;6.30;99.90;;;;;;5063065;28;20044;-74
2022/04/29 01:08:38;;;;;;;12.98;7.22;;;6.30;99.90;;;;;;5114789;28;20039;-73
2022/04/29 01:11:04;;;;;;;12.30;7.82;;;6.10;99.90;;;;;;5080039;28;20117;-74
2022/04/29 01:13:29;;;;;;;11.68;7.85;;;6.10;99.90;;;;;;5079520;28;20418;-74
2022/04/29 01:15:58;;;;;;;16.25;9.05;;;6.00;99.90;;;;;;5062942;28;20134;-73
2022/04/29 01:18:24;;;;;;;15.50;9.07;;;6.00;99.90;;;;;;5113855;28;20059;-74
2022/04/29 01:21:01;;;;;;;11.88;7.60;;;5.90;99.90;;;;;;5063207;28;20082;-74
2022/04/29 01:23:28;;;;;;;11.55;8.48;;;5.90;99.90;;;;;;5095650;28;20495;-73
2022/04/29 01:25:54;;;;;;;15.18;8.15;;;5.80;99.90;;;;;;5114575;28;20100;-74
2022/04/29 01:28:24;;;;;;;14.48;8.43;;;5.80;99.90;;;;;;5079059;28;20429;-74
2022/04/29 01:30:51;;;;;;;11.13;7.70;;;5.80;99.90;;;;;;5063255;28;20039;-74
2022/04/29 01:33:20;;;;;;;13.00;7.95;;;5.80;99.90;;;;;;5079486;28;20043;-74
2022/04/29 01:35:46;;;;;;;10.98;8.23;;;5.80;99.90;;;;;;5062825;28;20040;-73
2022/04/29 01:38:11;;;;;;;14.80;8.45;;;5.80;99.90;;;;;;5096107;28;20047;-74
2022/04/29 01:40:37;;;;;;;13.13;9.13;;;5.80;99.90;;;;;;5078673;28;20047;-73
2022/04/29 01:43:03;;;;;;;14.30;8.40;;;5.80;99.90;;;;;;5078994;28;20126;-74
2022/04/29 01:45:29;;;;;;;18.05;8.45;;;5.70;99.90;;;;;;5113567;28;20483;-73
2022/04/29 01:47:54;;;;;;;13.27;8.82;;;5.80;99.90;;;;;;5114008;28;20050;-74
2022/04/29 01:50:20;;;;;;;12.70;8.32;;;5.80;99.90;;;;;;5079010;28;20477;-74
2022/04/29 01:52:46;;;;;;;14.02;9.00;;;5.70;99.90;;;;;;5078768;28;20495;-73
2022/04/29 01:55:11;;;;;;;13.13;9.05;;;5.70;99.90;;;;;;5114178;28;20039;-73
2022/04/29 01:57:37;;;;;;;13.48;8.35;;;5.70;99.90;;;;;;5078502;28;20100;-73
2022/04/29 02:00:04;;;;;;;15.57;9.23;;;5.70;99.90;;;;;;5079054;28;20050;-73
2022/04/29 02:02:30;;;;;;;12.02;8.38;;;5.70;99.90;;;;;;5078449;28;20123;-73
2022/04/29 02:04:55;;;;;;;12.15;8.70;;;5.70;99.90;;;;;;5113674;28;20130;-74
2022/04/29 02:07:21;;;;;;;12.95;8.55;;;5.60;99.90;;;;;;5113392;28;20042;-74
2022/04/29 02:09:47;;;;;;;15.45;8.52;;;5.60;99.90;;;;;;5113832;28;20043;-73
2022/04/29 02:12:12;;;;;;;13.10;8.88;;;5.60;99.90;;;;;;5095638;28;20464;-73
2022/04/29 02:14:39;;;;;;;12.07;8.68;;;5.60;99.90;;;;;;5095262;28;20048;-73
2022/04/29 02:17:06;;;;;;;15.05;8.98;;;5.60;99.90;;;;;;5062214;28;20039;-73
2022/04/29 02:19:33;;;;;;;11.90;8.32;;;5.60;99.90;;;;;;5094773;28;20419;-74
2022/04/29 02:21:59;;;;;;;13.02;8.35;;;5.60;99.90;;;;;;5113050;28;20568;-74
2022/04/29 02:24:24;;;;;;;12.23;8.55;;;5.60;99.90;;;;;;5078435;28;20096;-74
2022/04/29 02:26:50;;;;;;;13.02;8.25;;;5.70;99.90;;;;;;5113466;28;20043;-74
2022/04/29 02:29:16;;;;;;;11.65;8.52;;;5.60;99.90;;;;;;5095262;28;20490;-74
2022/04/29 02:31:41;;;;;;;14.63;8.55;;;5.60;99.90;;;;;;5094748;28;20050;-74
2022/04/29 02:34:07;;;;;;;9.60;7.63;;;5.60;99.90;;;;;;5094601;28;20101;-74
2022/04/29 02:36:33;;;;;;;11.65;8.30;;;5.50;99.90;;;;;;5094580;28;20043;-74
2022/04/29 02:39:01;;;;;;;9.85;8.07;;;5.60;99.90;;;;;;5094763;28;20096;-74
2022/04/29 02:41:26;;;;;;;13.07;8.30;;;5.50;99.90;;;;;;5077695;28;20056;-74
2022/04/29 02:43:52;;;;;;;12.80;8.45;;;5.50;99.90;;;;;;5095047;28;20043;-74
2022/04/29 02:46:18;;;;;;;11.15;8.40;;;5.50;99.90;;;;;;5095013;28;20052;-74
2022/04/29 02:48:46;;;;;;;14.20;8.35;;;5.50;99.90;;;;;;5094477;28;20051;-73
2022/04/29 02:51:12;;;;;;;10.35;8.20;;;5.70;99.90;;;;;;5112962;28;20043;-74
2022/04/29 02:53:38;;;;;;;12.48;8.10;;;5.60;99.90;;;;;;5094492;28;20133;-74
2022/04/29 02:56:03;;;;;;;16.40;8.75;;;5.60;99.90;;;;;;5095207;28;20131;-74
2022/04/29 02:58:29;;;;;;;14.68;8.70;;;5.60;99.90;;;;;;5077922;28;20055;-74
2022/04/29 03:00:56;;;;;;;11.13;8.15;;;5.70;99.90;;;;;;5112647;28;20055;-73
2022/04/29 03:03:22;;;;;;;9.55;8.07;;;5.70;99.90;;;;;;5078143;28;20156;-73
2022/04/29 03:05:47;;;;;;;12.27;8.18;;;5.70;99.90;;;;;;5094539;28;20173;-73
2022/04/29 03:08:13;;;;;;;11.45;7.90;;;5.70;99.90;;;;;;5094783;28;20048;-74
2022/04/29 03:10:39;;;;;;;11.93;8.20;;;5.70;99.90;;;;;;5077619;28;20044;-73
2022/04/29 03:13:04;;;;;;;11.35;8.02;;;5.70;99.90;;;;;;5112441;28;20079;-73
2022/04/29 03:15:30;;;;;;;13.48;7.90;;;5.80;99.90;;;;;;5094146;28;20128;-74
2022/04/29 03:20:40;;;;;;;10.00;7.65;;;5.80;99.90;;;;;;5112307;28;20048;-74
2022/04/29 03:23:06;;;;;;;14.38;7.55;;;5.80;99.90;;;;;;5112797;28;20415;-74
2022/04/29 03:25:32;;;;;;;12.00;7.40;;;5.80;99.90;;;;;;5094334;28;20040;-74
2022/04/29 03:27:58;;;;;;;11.32;8.55;;;5.80;99.90;;;;;;5094650;28;20043;-73
2022/04/29 03:30:23;;;;;;;16.38;8.00;;;5.80;99.90;;;;;;5112794;28;20373;-73
2022/04/29 03:32:56;;;;;;;10.23;8.13;;;5.80;99.90;;;;;;5111925;28;20040;-73
2022/04/29 03:35:22;;;;;;;10.38;7.30;;;5.80;99.90;;;;;;5062250;28;20103;-73
2022/04/29 03:37:53;;;;;;;10.93;7.40;;;5.80;99.90;;;;;;5094099;28;20052;-73
2022/04/29 03:40:22;;;;;;;10.65;7.63;;;5.80;99.90;;;;;;5095333;28;20453;-75
2022/04/29 03:42:52;;;;;;;13.35;8.40;;;5.80;99.90;;;;;;5078242;28;20044;-74
2022/04/29 03:45:19;;;;;;;11.23;8.13;;;5.80;99.90;;;;;;5094422;28;20131;-74
2022/04/29 03:47:44;;;;;;;12.43;7.97;;;5.80;99.90;;;;;;5115235;28;20100;-74
2022/04/29 03:50:10;;;;;;;14.32;8.88;;;5.80;99.90;;;;;;5116578;28;20399;-74
2022/04/29 03:52:50;;;;;;;9.90;8.23;;;5.80;99.90;;;;;;5115981;28;20044;-73
2022/04/29 03:55:17;;;;;;;10.32;7.90;;;5.90;99.90;;;;;;5081527;28;20055;-74
2022/04/29 03:57:42;;;;;;;12.23;8.52;;;5.90;99.90;;;;;;5081048;28;20441;-73
2022/04/29 04:00:09;;;;;;;9.32;8.20;;;5.90;99.90;;;;;;5116396;28;20043;-74
2022/04/29 04:02:34;;;;;;;14.75;8.57;;;5.90;99.90;;;;;;5097611;28;20096;-74
2022/04/29 04:05:00;;;;;;;14.13;8.63;;;5.90;99.90;;;;;;5116409;28;20044;-73
2022/04/29 04:07:25;;;;;;;13.75;8.27;;;6.00;99.90;;;;;;5098120;28;20069;-73
2022/04/29 04:09:51;;;;;;;14.70;8.05;;;6.00;99.90;;;;;;5115716;28;20048;-73
2022/04/29 04:12:17;;;;;;;11.10;8.60;;;6.00;99.90;;;;;;5097945;28;20039;-74
2022/04/29 04:14:43;;;;;;;12.63;8.85;;;6.00;99.90;;;;;;5080729;28;20049;-74
2022/04/29 04:17:08;;;;;;;12.70;8.68;;;6.00;99.90;;;;;;5081005;28;20535;-74
2022/04/29 04:19:35;;;;;;;12.20;8.38;;;6.10;99.90;;;;;;5115130;28;20079;-77
2022/04/29 04:22:01;;;;;;;14.40;8.23;;;6.10;99.90;;;;;;5115751;28;20122;-75
2022/04/29 04:24:27;;;;;;;13.63;8.90;;;6.10;99.90;;;;;;5080241;28;20050;-74
2022/04/29 04:26:52;;;;;;;11.32;8.27;;;6.10;99.90;;;;;;5097217;28;20040;-74
2022/04/29 04:29:18;;;;;;;10.98;7.60;;;6.20;99.90;;;;;;5080792;28;20055;-74
2022/04/29 04:31:44;;;;;;;10.75;7.75;;;6.10;99.90;;;;;;5115224;28;20043;-73
2022/04/29 04:36:53;;;;;;;14.45;8.40;;;6.20;99.90;;;;;;5099501;28;20138;-73
2022/04/29 04:39:20;;;;;;;11.15;8.55;;;6.10;99.90;;;;;;5080310;28;20131;-73
2022/04/29 04:41:46;;;;;;;11.18;7.35;;;6.10;99.90;;;;;;5063879;28;20052;-73
2022/04/29 04:44:12;;;;;;;14.18;7.82;;;6.10;99.90;;;;;;5097409;28;20487;-73
2022/04/29 04:46:38;;;;;;;11.13;7.60;;;6.20;99.90;;;;;;5079859;28;20043;-75
2022/04/29 04:49:04;;;;;;;11.43;7.43;;;6.20;99.90;;;;;;5097389;28;20100;-74
2022/04/29 04:51:29;;;;;;;10.27;7.57;;;6.30;99.90;;;;;;5115389;28;20043;-74
2022/04/29 04:53:55;;;;;;;10.35;7.30;;;6.40;99.90;;;;;;5114419;28;20043;-74
2022/04/29 04:56:21;;;;;;;14.38;7.65;;;6.40;99.90;;;;;;5080274;28;20051;-74
2022/04/29 04:58:46;;;;;;;9.57;6.38;;;6.50;99.90;;;;;;5114040;28;20103;-74
2022/04/29 05:01:12;;;;;;;9.80;7.13;;;6.50;99.90;;;;;;5115077;28;20043;-74
2022/04/29 05:03:40;;;;;;;9.18;7.20;;;6.60;99.90;;;;;;5114669;28;20043;-74
2022/04/29 05:06:05;;;;;;;9.95;7.15;;;6.70;99.90;;;;;;5096892;28;20096;-72
2022/04/29 05:08:31;;;;;;;8.05;7.05;;;6.80;99.90;;;;;;5097073;28;20051;-73
2022/04/29 05:10:56;;;;;;;10.23;7.10;;;6.90;99.90;;;;;;5114386;28;20047;-73
2022/04/29 05:13:22;;;;;;;10.45;6.93;;;6.90;99.90;;;;;;5114534;28;20391;-74
2022/04/29 05:15:48;;;;;;;11.75;6.30;;;7.00;99.90;;;;;;5079416;28;20063;-74
2022/04/29 05:18:15;;;;;;;8.32;6.28;;;7.10;99.90;;;;;;5096613;28;20395;-74
2022/04/29 05:20:40;;;;;;;10.10;6.38;;;7.10;99.90;;;;;;5096630;28;20126;-74
2022/04/29 05:23:06;;;;;;;7.50;6.22;;;7.20;99.90;;;;;;5114057;28;20452;-74
2022/04/29 05:25:33;;;;;;;10.82;6.28;;;7.20;99.90;;;;;;5114514;28;20054;-74
2022/04/29 05:27:59;;;;;;;7.80;6.07;;;7.30;99.90;;;;;;5096182;28;20047;-74
2022/04/29 05:30:26;;;;;;;10.20;6.75;;;7.30;99.90;;;;;;5114557;28;20081;-73
2022/04/29 05:32:53;;;;;;;13.55;6.55;;;7.30;99.90;;;;;;5079096;28;20048;-74
2022/04/29 05:35:18;;;;;;;9.60;5.95;;;7.30;99.90;;;;;;5079831;28;20051;-73
2022/04/29 05:37:44;;;;;;;12.68;6.00;;;7.30;99.90;;;;;;5079532;28;20051;-77
2022/04/29 05:42:54;;;;;;;11.80;6.53;;;7.40;99.90;;;;;;5098653;28;20047;-74
2022/04/29 05:45:19;;;;;;;10.55;6.10;;;7.40;99.90;;;;;;5096445;28;20491;-74
2022/04/29 05:47:45;;;;;;;9.15;5.72;;;7.40;99.90;;;;;;5096255;28;20040;-77
2022/04/29 05:50:11;;;;;;;10.57;5.68;;;7.40;99.90;;;;;;5079639;28;20047;-74
2022/04/29 05:52:36;;;;;;;9.95;5.80;;;7.50;99.90;;;;;;5114342;28;20544;-74
2022/04/29 05:55:02;;;;;;;12.27;5.72;;;7.50;99.90;;;;;;5113513;28;20044;-74
2022/04/29 05:57:28;;;;;;;10.32;5.45;;;7.60;99.90;;;;;;5096076;28;20055;-74
2022/04/29 05:59:53;;;;;;;11.30;5.85;;;7.60;99.90;;;;;;5095350;28;20043;-74
2022/04/29 06:02:21;;;;;;;7.78;5.40;;;7.70;99.90;;;;;;5095515;28;20050;-74
2022/04/29 06:04:47;;;;;;;12.48;5.55;;;7.70;99.90;;;;;;5096289;28;20044;-73
2022/04/29 06:07:12;;;;;;;6.03;5.38;;;7.80;99.90;;;;;;5114338;28;20050;-73
2022/04/29 06:09:38;;;;;;;10.73;5.68;;;7.80;99.90;;;;;;5095251;28;20101;-73
2022/04/29 06:12:04;;;;;;;9.73;5.50;;;7.90;99.90;;;;;;5113275;28;20097;-74
2022/04/29 06:14:30;;;;;;;9.93;5.95;;;8.00;99.90;;;;;;5078973;28;20044;-73
2022/04/29 06:16:55;;;;;;;10.30;5.30;;;8.00;99.90;;;;;;5113674;28;20116;-73
2022/04/29 06:19:21;;;;;;;8.98;5.75;;;8.10;99.90;;;;;;5095460;28;20059;-73
2022/04/29 06:21:47;;;;;;;8.95;5.40;;;8.10;99.90;;;;;;5095589;28;20048;-74
2022/04/29 06:24:12;;;;;;;10.25;5.57;;;8.10;99.90;;;;;;5113208;28;20103;-74
2022/04/29 06:26:38;;;;;;;10.50;5.97;;;8.20;99.90;;;;;;5095143;28;20403;-74
2022/04/29 06:29:04;;;;;;;9.13;5.78;;;8.20;99.90;;;;;;5095194;28;20043;-74
2022/04/29 06:31:29;;;;;;;8.43;5.28;;;8.30;99.90;;;;;;5095543;28;20462;-73
2022/04/29 06:33:55;;;;;;;10.93;5.05;;;8.30;99.90;;;;;;5061321;28;20180;-73
2022/04/29 06:36:21;;;;;;;7.22;5.18;;;8.40;99.90;;;;;;5113069;28;20047;-73
2022/04/29 06:38:46;;;;;;;10.05;4.72;;;8.40;99.90;;;;;;5095165;28;20126;-74
2022/04/29 06:41:12;;;;;;;8.18;5.35;;;8.50;99.90;;;;;;5112953;28;20043;-74
2022/04/29 06:43:38;;;;;;;10.55;4.35;;;8.60;99.90;;;;;;5113085;28;20438;-74
2022/04/29 06:46:03;;;;;;;12.05;4.95;;;8.70;99.90;;;;;;5112569;28;20046;-73
2022/04/29 06:48:29;;;;;;;8.20;5.00;;;8.60;99.90;;;;;;5095014;28;20390;-73
2022/04/29 06:50:54;;;;;;;9.98;4.60;;;8.70;99.90;;;;;;5077787;28;20361;-74
2022/04/29 06:53:20;;;;;;;9.10;4.57;;;8.70;99.90;;;;;;5113184;28;20047;-74
2022/04/29 06:55:47;;;;;;;8.40;4.80;;;8.70;99.90;;;;;;5112961;28;20392;-74
2022/04/29 06:58:12;;;;;;;9.35;5.05;;;8.80;99.90;;;;;;5094337;28;20052;-73
2022/04/29 07:00:40;;;;;;;7.05;4.53;;;8.80;99.90;;;;;;5078071;28;20048;-74
2022/04/29 07:03:06;;;;;;;6.82;4.88;;;8.90;99.90;;;;;;5112679;28;20043;-74
2022/04/29 07:05:32;;;;;;;10.05;4.38;;;9.00;99.90;;;;;;5113196;28;20055;-74
2022/04/29 07:07:58;;;;;;;6.63;4.00;;;9.00;99.90;;;;;;5094673;28;20075;-75
2022/04/29 07:10:24;;;;;;;7.15;4.50;;;9.10;99.90;;;;;;5113052;28;20055;-74
2022/04/29 07:12:49;;;;;;;8.60;3.65;;;9.20;99.90;;;;;;5061112;28;20042;-74
2022/04/29 07:15:15;;;;;;;6.88;3.67;;;9.20;99.90;;;;;;5094212;28;20054;-75
2022/04/29 07:17:42;;;;;;;7.15;3.50;;;9.20;99.90;;;;;;5077568;28;20051;-74
2022/04/29 07:20:08;;;;;;;12.15;4.07;;;9.20;99.90;;;;;;5060852;28;20052;-74
2022/04/29 07:22:35;;;;;;;8.50;3.40;;;9.30;99.90;;;;;;5098696;28;20052;-76
2022/04/29 07:25:01;;;;;;;8.70;3.20;;;9.40;99.90;;;;;;5081682;28;20047;-75
2022/04/29 07:27:28;;;;;;;6.20;3.65;;;9.40;99.90;;;;;;5098745;28;20044;-74
2022/04/29 07:29:54;;;;;;;9.18;4.22;;;9.40;99.90;;;;;;5117090;28;20043;-74
2022/04/29 07:32:20;;;;;;;6.50;3.65;;;9.40;99.90;;;;;;5098364;28;20127;-75
2022/04/29 07:42:58;;;;;;;12.18;4.22;;;9.70;99.90;;;;;;5116566;28;20453;-74
2022/04/29 07:45:24;;;;;;;8.48;3.65;;;9.80;99.90;;;;;;5098310;28;20048;-74
2022/04/29 07:47:50;;;;;;;6.53;3.92;;;9.90;99.30;;;;;;5098513;28;20043;-74
2022/04/29 07:50:16;;;;;;;7.93;3.63;;;10.00;99.10;;;;;;5097419;28;20487;-74
2022/04/29 07:52:41;;;;;;;6.30;3.35;;;10.00;99.00;;;;;;5115947;28;20039;-74
2022/04/29 07:55:07;;;;;;;5.68;3.47;;;10.10;98.70;;;;;;5097759;28;20048;-74
2022/04/29 07:57:33;;;;;;;8.85;3.17;;;10.10;98.40;;;;;;5098005;28;20043;-74
2022/04/29 07:59:59;;;;;;;9.55;3.00;;;10.10;98.50;;;;;;5115995;28;20487;-74
2022/04/29 08:02:24;;;;;;;4.68;2.30;;;10.10;98.20;;;;;;5115580;28;20035;-74
2022/04/29 08:04:50;;;;;;;6.07;2.70;;;10.10;98.30;;;;;;5098399;28;20534;-74
2022/04/29 08:07:16;;;;;;;6.57;2.58;;;10.10;98.20;;;;;;5115838;28;20074;-74
2022/04/29 08:09:41;;;;;;;5.78;2.30;;;10.20;98.10;;;;;;5097521;28;20499;-74
2022/04/29 08:12:10;;;;;;;5.07;2.55;;;10.20;97.40;;;;;;5097360;28;20039;-74
2022/04/29 08:14:35;;;;;;;7.80;2.47;;;10.30;97.50;;;;;;5080920;28;20604;-74
2022/04/29 08:17:01;;;;;;;5.18;2.67;;;10.40;97.30;;;;;;5116263;28;20051;-74
2022/04/29 08:19:27;;;;;;;5.63;2.80;;;10.40;96.80;;;;;;5115460;28;20067;-74
2022/04/29 08:21:53;;;;;;;3.75;2.20;;;10.50;96.80;;;;;;5080650;28;20507;-74
2022/04/29 08:24:18;;;;;;;5.47;2.53;;;10.50;96.30;;;;;;5097268;28;20035;-73
2022/04/29 08:26:44;;;;;;;6.70;2.70;;;10.50;96.10;;;;;;5081190;28;20499;-74
2022/04/29 08:29:10;;;;;;;6.85;2.80;;;10.50;95.60;;;;;;5097160;28;20068;-75
2022/04/29 08:31:36;;;;;;;5.90;2.72;;;10.40;95.60;;;;;;5097188;28;20044;-74
2022/04/29 08:34:03;;;;;;;5.30;2.60;;;10.40;95.60;;;;;;5097198;28;20484;-75
2022/04/29 08:36:30;;;;;;;4.07;2.55;;;10.50;95.90;;;;;;5115017;28;20044;-75
2022/04/29 08:38:56;;;;;;;5.78;2.40;;;10.50;95.40;;;;;;5080922;28;20055;-74
2022/04/29 08:41:22;;;;;;;8.13;2.60;;;10.40;94.80;;;;;;5097360;28;20052;-74
2022/04/29 08:43:48;;;;;;;6.07;2.70;;;10.50;95.20;;;;;;5115658;28;20138;-74
2022/04/29 08:46:13;;;;;;;5.70;2.50;;;10.40;94.30;;;;;;5096662;28;20039;-75
2022/04/29 08:48:41;;;;;;;4.93;2.80;;;10.40;94.80;;;;;;5097002;28;20108;-75
2022/04/29 08:51:06;;;;;;;6.47;3.00;;;10.40;94.30;;;;;;5063981;28;20111;-75
2022/04/29 08:53:34;;;;;;;7.43;2.70;;;10.50;94.40;;;;;;5062903;28;20440;-75
2022/04/29 08:58:45;;;;;;;8.23;2.83;;;10.40;95.00;;;;;;5068697;28;20109;-75
2022/04/29 09:01:15;;;;;;;7.32;2.60;;;10.50;95.20;;;;;;5080030;28;20098;-80
2022/04/29 09:03:42;;;;;;;5.97;2.45;;;10.50;95.20;;;;;;5080588;28;20042;-75
2022/04/29 09:06:08;;;;;;;5.32;2.60;;;10.60;95.00;;;;;;5097136;28;20052;-75
2022/04/29 09:08:41;;;;;;;5.40;2.50;;;10.60;94.10;;;;;;5080074;28;20048;-76
2022/04/29 09:11:07;;;;;;;5.03;2.60;;;10.60;93.10;;;;;;5115104;28;20039;-75
2022/04/29 09:13:35;;;;;;;6.70;2.55;;;10.50;93.10;;;;;;5096602;28;20054;-74
2022/04/29 09:16:10;;;;;;;3.33;2.40;;;10.50;93.60;;;;;;5080381;28;20050;-75
2022/04/29 09:18:39;;;;;;;5.82;2.30;;;10.40;93.60;;;;;;5096176;28;20059;-74
2022/04/29 09:21:18;;;;;;;5.82;2.65;;;10.40;94.00;;;;;;5079730;28;20047;-74
2022/04/29 09:23:57;;;;;;;4.93;2.80;;;10.40;94.20;;;;;;5080056;28;20373;-75
2022/04/29 09:26:36;;;;;;;7.47;3.00;;;10.40;94.50;;;;;;5113866;28;20044;-74
2022/04/29 09:29:15;;;;;;;8.73;2.60;;;10.40;94.70;;;;;;5097121;28;20400;-76
2022/04/29 09:31:56;;;;;;;6.75;2.40;;;10.40;94.40;;;;;;5079710;28;20046;-74
2022/04/29 09:34:22;;;;;;;5.40;2.53;;;10.40;93.80;;;;;;5096867;28;20126;-74
2022/04/29 09:36:48;;;;;;;6.57;2.30;;;10.40;94.00;;;;;;5114730;28;20060;-74
2022/04/29 09:39:30;;;;;;;3.63;2.13;;;10.30;93.80;;;;;;5062657;28;20036;-74
2022/04/29 09:42:05;;;;;;;4.95;2.17;;;10.40;94.20;;;;;;5097965;28;20491;-74
2022/04/29 09:44:32;;;;;;;4.00;2.03;;;10.40;92.40;;;;;;5061084;28;20048;-75
2022/04/29 09:47:15;;;;;;;7.25;2.03;;;10.50;93.40;;;;;;5095885;28;20043;-74
2022/04/29 09:49:42;;;;;;;5.35;2.10;;;10.40;91.80;;;;;;5095273;28;20052;-74
2022/04/29 09:52:07;;;;;;;4.55;2.25;;;10.40;92.90;;;;;;5114060;28;20070;-74
2022/04/29 09:54:37;;;;;;;6.72;2.55;;;10.50;93.00;;;;;;5062377;28;20122;-74
2022/04/29 09:57:13;;;;;;;5.07;2.60;;;10.60;93.20;;;;;;5114298;28;20083;-74
2022/04/29 09:59:46;;;;;;;6.38;2.40;;;10.60;93.30;;;;;;5095788;28;20077;-74
2022/04/29 10:02:13;;;;;;;5.57;2.35;;;10.70;92.30;;;;;;5096122;28;20043;-74
2022/04/29 10:04:46;;;;;;;5.38;2.25;;;10.70;92.50;;;;;;5095413;28;20058;-74
2022/04/29 10:07:13;;;;;;;5.90;2.47;;;10.70;92.00;;;;;;5095784;28;20051;-74
2022/04/29 10:09:41;;;;;;;6.90;2.45;;;10.70;91.80;;;;;;5095562;28;20348;-74
2022/04/29 10:12:14;;;;;;;5.18;2.10;;;10.80;92.20;;;;;;5113602;28;20096;-74
2022/04/29 10:14:40;;;;;;;5.45;2.13;;;10.80;92.00;;;;;;5113102;28;20374;-74
2022/04/29 10:22:41;;;;;;;5.93;2.40;;;10.80;90.90;;;;;;5067335;28;20059;-74
2022/04/29 10:25:10;;;;;;;4.65;2.53;;;10.80;91.50;;;;;;5078842;28;20046;-74
2022/04/29 10:27:39;;;;;;;4.20;2.20;;;10.80;91.20;;;;;;5095159;28;20047;-74
2022/04/29 10:30:06;;;;;;;7.47;2.33;;;10.80;91.10;;;;;;5078625;28;20046;-74
2022/04/29 10:33:01;;;;;;;4.10;2.13;;;10.80;90.90;;;;;;5094929;28;20048;-75
2022/04/29 10:35:39;;;;;;;3.67;2.40;;;10.90;90.90;;;;;;5080033;28;20057;-75
2022/04/29 10:38:31;;;;;;;6.13;3.08;;;11.00;91.20;;;;;;5113217;28;20048;-74
2022/04/29 10:41:25;;;;;;;5.57;2.90;;;10.90;89.80;;;;;;5113157;28;20058;-75
2022/04/29 10:43:50;;;;;;;6.15;3.42;;;10.90;90.40;;;;;;5078717;28;20391;-74
2022/04/29 10:46:37;;;;;;;15.40;3.40;;;10.90;91.30;;;;;;5113265;28;20044;-74
2022/04/29 10:49:20;;;;;;;5.05;2.97;;;10.90;90.30;;;;;;5113307;28;20047;-75
2022/04/29 10:51:49;;;;;;;5.32;2.80;;;11.00;90.30;;;;;;5094461;28;20044;-74
2022/04/29 10:54:15;;;;;;;7.93;2.80;;;11.00;89.10;;;;;;5113397;28;20180;-74
2022/04/29 10:56:41;;;;;;;6.53;3.30;;;10.90;90.20;;;;;;5094174;28;20130;-74
2022/04/29 10:59:06;;;;;;;7.53;2.90;;;10.90;90.50;;;;;;5078401;28;20147;-74
2022/04/29 11:01:35;;;;;;;9.35;3.58;;;10.90;90.40;;;;;;5112498;28;20048;-75
2022/04/29 11:04:04;;;;;;;4.13;3.35;;;10.90;90.40;;;;;;5095245;28;20046;-75
2022/04/29 11:06:46;;;;;;;9.20;3.15;;;10.90;91.00;;;;;;5061236;28;20055;-75
2022/04/29 11:09:31;;;;;;;7.65;3.58;;;10.90;89.50;;;;;;5095519;28;20570;-75
2022/04/29 11:11:58;;;;;;;6.50;2.92;;;10.80;89.10;;;;;;5094401;28;20084;-74
2022/04/29 11:14:24;;;;;;;3.80;2.80;;;10.90;90.20;;;;;;5078115;28;20112;-73
2022/04/29 11:17:16;;;;;;;5.07;3.08;;;10.90;90.20;;;;;;5077265;28;20122;-75
2022/04/29 11:19:47;;;;;;;4.43;3.20;;;10.90;90.00;;;;;;5090447;28;20136;-74
2022/04/29 11:25:04;;;;;;;6.60;3.40;;;10.90;90.00;;;;;;5113025;28;20087;-74
2022/04/29 11:27:32;;;;;;;7.45;3.42;;;10.80;90.90;;;;;;5094250;28;20130;-76
2022/04/29 11:30:01;;;;;;;7.18;3.30;;;10.70;90.70;;;;;;5078426;28;20395;-74
2022/04/29 11:32:27;;;;;;;7.70;3.40;;;10.80;90.60;;;;;;5062407;28;20526;-74
2022/04/29 11:34:57;;;;;;;7.78;3.40;;;10.90;90.60;;;;;;5077714;28;20048;-74
2022/04/29 11:37:31;;;;;;;6.70;3.78;;;11.00;90.70;;;;;;5112849;28;20043;-74
2022/04/29 11:40:00;;;;;;;5.28;3.40;;;11.00;90.10;;;;;;5113001;28;20075;-74
2022/04/29 11:42:26;;;;;;;6.05;3.05;;;11.10;90.30;;;;;;5095316;28;20067;-74
2022/04/29 11:44:52;;;;;;;5.35;3.35;;;11.10;89.20;;;;;;5094257;28;20044;-75
2022/04/29 11:47:24;;;;;;;7.32;3.28;;;11.10;88.30;;;;;;5112840;28;20130;-74
2022/04/29 11:49:49;;;;;;;7.85;3.40;;;11.10;87.50;;;;;;5077490;28;20040;-74
2022/04/29 11:52:22;;;;;;;5.50;3.20;;;11.20;87.90;;;;;;5112522;28;20356;-74
2022/04/29 11:54:54;;;;;;;6.90;3.00;;;11.20;86.00;;;;;;5093810;28;20051;-75
2022/04/29 11:57:20;;;;;;;8.13;3.08;;;11.20;85.90;;;;;;5112441;28;20051;-74
2022/04/29 11:59:46;;;;;;;6.15;3.50;;;11.30;86.00;;;;;;5077326;28;20063;-75
2022/04/29 12:02:14;;;;;;;5.53;3.30;;;11.30;86.10;;;;;;5077982;28;20474;-74
2022/04/29 12:05:00;;;;;;;4.63;3.30;;;11.40;85.90;;;;;;5111867;28;20070;-74
2022/04/29 12:07:27;;;;;;;9.88;3.28;;;11.50;82.80;;;;;;5113609;28;20404;-75
2022/04/29 12:09:53;;;;;;;5.65;3.25;;;11.40;83.60;;;;;;5115551;28;20051;-74
2022/04/29 12:12:26;;;;;;;5.93;2.95;;;11.50;83.80;;;;;;5080862;28;20050;-75
2022/04/29 12:14:52;;;;;;;7.18;3.28;;;11.60;82.20;;;;;;5115658;28;20404;-74
2022/04/29 12:17:17;;;;;;;9.10;3.35;;;11.60;83.60;;;;;;5081146;28;20047;-74
2022/04/29 12:19:43;;;;;;;7.03;3.45;;;11.60;83.00;;;;;;5097537;28;20058;-75
2022/04/29 12:22:09;;;;;;;4.60;2.80;;;11.70;82.20;;;;;;5097985;28;20090;-74
2022/04/29 12:24:42;;;;;;;7.35;3.33;;;11.70;81.60;;;;;;5097983;28;20126;-74
2022/04/29 12:27:08;;;;;;;5.50;3.17;;;11.60;80.50;;;;;;5081342;28;20055;-74
2022/04/29 12:29:36;;;;;;;4.88;2.65;;;11.70;82.10;;;;;;5080907;28;20044;-75
2022/04/29 12:35:09;;;;;;;6.80;2.55;;;11.90;81.50;;;;;;5100165;28;20105;-75
2022/04/29 12:37:35;;;;;;;6.78;2.95;;;11.90;79.30;;;;;;5080939;28;20039;-75
2022/04/29 12:40:10;;;;;;;5.53;3.05;;;11.90;79.60;;;;;;5097044;28;20365;-75
2022/04/29 12:42:36;;;;;;;6.68;2.67;;;11.90;78.60;;;;;;5097770;28;20531;-74
2022/04/29 12:45:11;;;;;;;4.65;2.30;;;11.90;80.50;;;;;;5097006;28;20126;-75
2022/04/29 12:47:52;;;;;;;6.57;2.40;;;11.90;79.50;;;;;;5115726;28;20062;-75
2022/04/29 12:50:34;;;;;;;3.45;2.30;;;11.90;76.10;;;;;;5098265;28;20184;-75
2022/04/29 12:53:17;;;;;;;6.53;2.50;;;11.80;77.40;;;;;;5114757;28;20411;-74
2022/04/29 12:55:42;;;;;;;5.95;2.60;;;11.70;78.50;;;;;;5047075;28;20044;-75
2022/04/29 12:58:12;;;;;;;5.63;2.60;;;11.60;78.20;;;;;;5080553;28;20440;-74
2022/04/29 13:00:38;;;;;;;5.63;2.40;;;11.60;77.10;;;;;;5097042;28;20063;-75
2022/04/29 13:03:09;;;;;;;4.65;2.42;;;11.70;78.90;;;;;;5114392;28;20112;-75
2022/04/29 13:05:37;;;;;;;8.18;2.40;;;11.80;78.00;;;;;;5080684;28;20127;-74
2022/04/29 13:08:03;;;;;;;4.20;2.55;;;11.90;79.00;;;;;;5063536;28;20502;-74
2022/04/29 13:10:29;;;;;;;5.93;3.00;;;12.00;78.70;;;;;;5096893;28;20126;-74
2022/04/29 13:12:56;;;;;;;4.38;2.42;;;12.10;77.20;;;;;;5095989;28;20452;-75
2022/04/29 13:15:21;;;;;;;7.35;2.85;;;12.10;77.80;;;;;;5114744;28;20048;-74
2022/04/29 13:17:47;;;;;;;4.55;2.45;;;12.20;78.50;;;;;;5095642;28;20105;-75
2022/04/29 13:20:13;;;;;;;5.40;2.40;;;12.30;78.60;;;;;;5096100;27;20055;-77